<?xml version="1.0" encoding="UTF-8" standalone="no" ?>
<gpx xmlns="http://www.topografix.com/GPX/1/1" xmlns:xsi="http://www.w3.org/2001/XMLSchema-instance" xsi:schemaLocation="http://www.topografix.com/GPX/1/1 http://www.topografix.com/GPX/1/1/gpx.xsd" version="1.1" creator="VisuGPX - https://www.visugpx.com">
  <metadata>
    <name>St Sorlin-Mornant-St Sorlin</name>
    <desc><![CDATA[St Sorlin-Mornant-St Sorlin]]></desc>
  </metadata>
  <trk>
    <name><![CDATA[29-OCT-11 13:05:16]]></name>
    <trkseg>
      <trkpt lat="45.62226" lon="4.64085">
        <ele>412.06</ele>
        <time>2011-10-29T09:36:33Z</time>
      </trkpt>
      <trkpt lat="45.62226" lon="4.64086">
        <ele>418.31</ele>
        <time>2011-10-29T09:36:34Z</time>
      </trkpt>
      <trkpt lat="45.62226" lon="4.64086">
        <ele>421.68</ele>
        <time>2011-10-29T09:36:36Z</time>
      </trkpt>
      <trkpt lat="45.62227" lon="4.6409">
        <ele>427.44</ele>
        <time>2011-10-29T09:36:39Z</time>
      </trkpt>
      <trkpt lat="45.62226" lon="4.64092">
        <ele>431.77</ele>
        <time>2011-10-29T09:36:42Z</time>
      </trkpt>
      <trkpt lat="45.62226" lon="4.64094">
        <ele>435.61</ele>
        <time>2011-10-29T09:36:45Z</time>
      </trkpt>
      <trkpt lat="45.62227" lon="4.64096">
        <ele>437.54</ele>
        <time>2011-10-29T09:36:47Z</time>
      </trkpt>
      <trkpt lat="45.62231" lon="4.64102">
        <ele>443.31</ele>
        <time>2011-10-29T09:36:52Z</time>
      </trkpt>
      <trkpt lat="45.62231" lon="4.64104">
        <ele>444.75</ele>
        <time>2011-10-29T09:36:53Z</time>
      </trkpt>
      <trkpt lat="45.62235" lon="4.64115">
        <ele>449.07</ele>
        <time>2011-10-29T09:36:59Z</time>
      </trkpt>
      <trkpt lat="45.62238" lon="4.64123">
        <ele>452.44</ele>
        <time>2011-10-29T09:37:04Z</time>
      </trkpt>
      <trkpt lat="45.62239" lon="4.64126">
        <ele>453.4</ele>
        <time>2011-10-29T09:37:06Z</time>
      </trkpt>
      <trkpt lat="45.62244" lon="4.64125">
        <ele>455.32</ele>
        <time>2011-10-29T09:37:10Z</time>
      </trkpt>
      <trkpt lat="45.62248" lon="4.64124">
        <ele>457.24</ele>
        <time>2011-10-29T09:37:13Z</time>
      </trkpt>
      <trkpt lat="45.62252" lon="4.64123">
        <ele>459.17</ele>
        <time>2011-10-29T09:37:17Z</time>
      </trkpt>
      <trkpt lat="45.62255" lon="4.64123">
        <ele>460.61</ele>
        <time>2011-10-29T09:37:20Z</time>
      </trkpt>
      <trkpt lat="45.62259" lon="4.64128">
        <ele>463.01</ele>
        <time>2011-10-29T09:37:33Z</time>
      </trkpt>
      <trkpt lat="45.62247" lon="4.64133">
        <ele>463.49</ele>
        <time>2011-10-29T09:37:37Z</time>
      </trkpt>
      <trkpt lat="45.62246" lon="4.64149">
        <ele>464.93</ele>
        <time>2011-10-29T09:37:47Z</time>
      </trkpt>
      <trkpt lat="45.62252" lon="4.64171">
        <ele>467.34</ele>
        <time>2011-10-29T09:37:59Z</time>
      </trkpt>
      <trkpt lat="45.62258" lon="4.64193">
        <ele>470.7</ele>
        <time>2011-10-29T09:38:12Z</time>
      </trkpt>
      <trkpt lat="45.62266" lon="4.64201">
        <ele>470.22</ele>
        <time>2011-10-29T09:38:22Z</time>
      </trkpt>
      <trkpt lat="45.62274" lon="4.64206">
        <ele>471.18</ele>
        <time>2011-10-29T09:38:28Z</time>
      </trkpt>
      <trkpt lat="45.62283" lon="4.64231">
        <ele>466.38</ele>
        <time>2011-10-29T09:38:45Z</time>
      </trkpt>
      <trkpt lat="45.62283" lon="4.64234">
        <ele>470.7</ele>
        <time>2011-10-29T09:38:47Z</time>
      </trkpt>
      <trkpt lat="45.62283" lon="4.64236">
        <ele>469.74</ele>
        <time>2011-10-29T09:38:48Z</time>
      </trkpt>
      <trkpt lat="45.62284" lon="4.64246">
        <ele>468.3</ele>
        <time>2011-10-29T09:38:55Z</time>
      </trkpt>
      <trkpt lat="45.62287" lon="4.64256">
        <ele>467.82</ele>
        <time>2011-10-29T09:39:01Z</time>
      </trkpt>
      <trkpt lat="45.6229" lon="4.64266">
        <ele>466.38</ele>
        <time>2011-10-29T09:39:09Z</time>
      </trkpt>
      <trkpt lat="45.62293" lon="4.64275">
        <ele>464.45</ele>
        <time>2011-10-29T09:39:20Z</time>
      </trkpt>
      <trkpt lat="45.62294" lon="4.64283">
        <ele>465.42</ele>
        <time>2011-10-29T09:39:25Z</time>
      </trkpt>
      <trkpt lat="45.62295" lon="4.64291">
        <ele>464.93</ele>
        <time>2011-10-29T09:39:29Z</time>
      </trkpt>
      <trkpt lat="45.62297" lon="4.64298">
        <ele>463.49</ele>
        <time>2011-10-29T09:39:38Z</time>
      </trkpt>
      <trkpt lat="45.62298" lon="4.64302">
        <ele>462.53</ele>
        <time>2011-10-29T09:39:41Z</time>
      </trkpt>
      <trkpt lat="45.623" lon="4.64315">
        <ele>462.05</ele>
        <time>2011-10-29T09:39:48Z</time>
      </trkpt>
      <trkpt lat="45.62303" lon="4.64327">
        <ele>460.61</ele>
        <time>2011-10-29T09:39:55Z</time>
      </trkpt>
      <trkpt lat="45.62306" lon="4.64332">
        <ele>460.61</ele>
        <time>2011-10-29T09:39:58Z</time>
      </trkpt>
      <trkpt lat="45.62312" lon="4.64354">
        <ele>458.21</ele>
        <time>2011-10-29T09:40:12Z</time>
      </trkpt>
      <trkpt lat="45.62313" lon="4.64361">
        <ele>454.36</ele>
        <time>2011-10-29T09:40:16Z</time>
      </trkpt>
      <trkpt lat="45.62313" lon="4.64363">
        <ele>457.72</ele>
        <time>2011-10-29T09:40:17Z</time>
      </trkpt>
      <trkpt lat="45.62314" lon="4.64368">
        <ele>462.05</ele>
        <time>2011-10-29T09:40:20Z</time>
      </trkpt>
      <trkpt lat="45.62314" lon="4.64369">
        <ele>456.76</ele>
        <time>2011-10-29T09:40:21Z</time>
      </trkpt>
      <trkpt lat="45.62315" lon="4.64379">
        <ele>453.4</ele>
        <time>2011-10-29T09:40:33Z</time>
      </trkpt>
      <trkpt lat="45.62315" lon="4.6438">
        <ele>457.24</ele>
        <time>2011-10-29T09:40:34Z</time>
      </trkpt>
      <trkpt lat="45.62315" lon="4.64382">
        <ele>456.28</ele>
        <time>2011-10-29T09:40:35Z</time>
      </trkpt>
      <trkpt lat="45.62313" lon="4.64396">
        <ele>454.84</ele>
        <time>2011-10-29T09:40:44Z</time>
      </trkpt>
      <trkpt lat="45.62311" lon="4.6441">
        <ele>453.4</ele>
        <time>2011-10-29T09:40:52Z</time>
      </trkpt>
      <trkpt lat="45.62311" lon="4.64419">
        <ele>452.44</ele>
        <time>2011-10-29T09:40:59Z</time>
      </trkpt>
      <trkpt lat="45.62311" lon="4.64447">
        <ele>450.03</ele>
        <time>2011-10-29T09:41:13Z</time>
      </trkpt>
      <trkpt lat="45.6231" lon="4.64475">
        <ele>448.11</ele>
        <time>2011-10-29T09:41:25Z</time>
      </trkpt>
      <trkpt lat="45.6231" lon="4.64497">
        <ele>446.67</ele>
        <time>2011-10-29T09:41:38Z</time>
      </trkpt>
      <trkpt lat="45.62309" lon="4.64516">
        <ele>445.71</ele>
        <time>2011-10-29T09:41:47Z</time>
      </trkpt>
      <trkpt lat="45.62312" lon="4.64537">
        <ele>444.27</ele>
        <time>2011-10-29T09:42:02Z</time>
      </trkpt>
      <trkpt lat="45.62317" lon="4.64563">
        <ele>442.82</ele>
        <time>2011-10-29T09:42:17Z</time>
      </trkpt>
      <trkpt lat="45.62325" lon="4.64591">
        <ele>442.34</ele>
        <time>2011-10-29T09:42:34Z</time>
      </trkpt>
      <trkpt lat="45.62333" lon="4.64611">
        <ele>440.9</ele>
        <time>2011-10-29T09:42:48Z</time>
      </trkpt>
      <trkpt lat="45.62342" lon="4.64635">
        <ele>439.94</ele>
        <time>2011-10-29T09:43:03Z</time>
      </trkpt>
      <trkpt lat="45.62345" lon="4.64643">
        <ele>439.46</ele>
        <time>2011-10-29T09:43:13Z</time>
      </trkpt>
      <trkpt lat="45.62346" lon="4.64646">
        <ele>439.46</ele>
        <time>2011-10-29T09:43:15Z</time>
      </trkpt>
      <trkpt lat="45.62355" lon="4.64664">
        <ele>438.98</ele>
        <time>2011-10-29T09:43:28Z</time>
      </trkpt>
      <trkpt lat="45.62356" lon="4.64666">
        <ele>438.98</ele>
        <time>2011-10-29T09:43:29Z</time>
      </trkpt>
      <trkpt lat="45.62361" lon="4.6468">
        <ele>438.5</ele>
        <time>2011-10-29T09:43:37Z</time>
      </trkpt>
      <trkpt lat="45.62364" lon="4.64687">
        <ele>438.02</ele>
        <time>2011-10-29T09:43:41Z</time>
      </trkpt>
      <trkpt lat="45.62373" lon="4.6471">
        <ele>436.58</ele>
        <time>2011-10-29T09:43:54Z</time>
      </trkpt>
      <trkpt lat="45.62377" lon="4.64719">
        <ele>436.58</ele>
        <time>2011-10-29T09:43:59Z</time>
      </trkpt>
      <trkpt lat="45.62383" lon="4.64728">
        <ele>434.65</ele>
        <time>2011-10-29T09:44:07Z</time>
      </trkpt>
      <trkpt lat="45.62388" lon="4.64734">
        <ele>435.13</ele>
        <time>2011-10-29T09:44:12Z</time>
      </trkpt>
      <trkpt lat="45.62386" lon="4.64757">
        <ele>433.69</ele>
        <time>2011-10-29T09:44:24Z</time>
      </trkpt>
      <trkpt lat="45.62384" lon="4.64786">
        <ele>432.25</ele>
        <time>2011-10-29T09:44:39Z</time>
      </trkpt>
      <trkpt lat="45.6238" lon="4.64817">
        <ele>430.81</ele>
        <time>2011-10-29T09:44:54Z</time>
      </trkpt>
      <trkpt lat="45.62379" lon="4.64828">
        <ele>429.37</ele>
        <time>2011-10-29T09:45:03Z</time>
      </trkpt>
      <trkpt lat="45.62377" lon="4.64838">
        <ele>428.4</ele>
        <time>2011-10-29T09:45:08Z</time>
      </trkpt>
      <trkpt lat="45.62377" lon="4.64847">
        <ele>427.92</ele>
        <time>2011-10-29T09:45:13Z</time>
      </trkpt>
      <trkpt lat="45.62376" lon="4.64859">
        <ele>427.44</ele>
        <time>2011-10-29T09:45:19Z</time>
      </trkpt>
      <trkpt lat="45.62377" lon="4.64868">
        <ele>426</ele>
        <time>2011-10-29T09:45:24Z</time>
      </trkpt>
      <trkpt lat="45.62379" lon="4.64894">
        <ele>424.56</ele>
        <time>2011-10-29T09:45:38Z</time>
      </trkpt>
      <trkpt lat="45.6238" lon="4.64921">
        <ele>422.64</ele>
        <time>2011-10-29T09:45:51Z</time>
      </trkpt>
      <trkpt lat="45.62383" lon="4.64932">
        <ele>421.68</ele>
        <time>2011-10-29T09:45:58Z</time>
      </trkpt>
      <trkpt lat="45.62385" lon="4.64951">
        <ele>420.23</ele>
        <time>2011-10-29T09:46:09Z</time>
      </trkpt>
      <trkpt lat="45.62387" lon="4.64966">
        <ele>419.75</ele>
        <time>2011-10-29T09:46:19Z</time>
      </trkpt>
      <trkpt lat="45.62388" lon="4.64975">
        <ele>418.79</ele>
        <time>2011-10-29T09:46:25Z</time>
      </trkpt>
      <trkpt lat="45.62388" lon="4.64981">
        <ele>418.79</ele>
        <time>2011-10-29T09:46:29Z</time>
      </trkpt>
      <trkpt lat="45.62388" lon="4.6499">
        <ele>418.79</ele>
        <time>2011-10-29T09:46:33Z</time>
      </trkpt>
      <trkpt lat="45.62395" lon="4.65019">
        <ele>416.87</ele>
        <time>2011-10-29T09:46:46Z</time>
      </trkpt>
      <trkpt lat="45.624" lon="4.65044">
        <ele>415.43</ele>
        <time>2011-10-29T09:46:59Z</time>
      </trkpt>
      <trkpt lat="45.62402" lon="4.65054">
        <ele>413.98</ele>
        <time>2011-10-29T09:47:05Z</time>
      </trkpt>
      <trkpt lat="45.624" lon="4.65086">
        <ele>411.1</ele>
        <time>2011-10-29T09:47:21Z</time>
      </trkpt>
      <trkpt lat="45.62398" lon="4.65111">
        <ele>409.18</ele>
        <time>2011-10-29T09:47:35Z</time>
      </trkpt>
      <trkpt lat="45.62394" lon="4.65132">
        <ele>407.74</ele>
        <time>2011-10-29T09:47:45Z</time>
      </trkpt>
      <trkpt lat="45.62392" lon="4.65137">
        <ele>406.77</ele>
        <time>2011-10-29T09:47:49Z</time>
      </trkpt>
      <trkpt lat="45.62383" lon="4.6516">
        <ele>405.33</ele>
        <time>2011-10-29T09:48:03Z</time>
      </trkpt>
      <trkpt lat="45.62373" lon="4.65163">
        <ele>405.33</ele>
        <time>2011-10-29T09:48:10Z</time>
      </trkpt>
      <trkpt lat="45.62356" lon="4.65163">
        <ele>404.85</ele>
        <time>2011-10-29T09:48:25Z</time>
      </trkpt>
      <trkpt lat="45.62352" lon="4.65163">
        <ele>404.37</ele>
        <time>2011-10-29T09:48:28Z</time>
      </trkpt>
      <trkpt lat="45.62347" lon="4.65161">
        <ele>404.37</ele>
        <time>2011-10-29T09:48:32Z</time>
      </trkpt>
      <trkpt lat="45.62328" lon="4.65164">
        <ele>404.37</ele>
        <time>2011-10-29T09:48:46Z</time>
      </trkpt>
      <trkpt lat="45.62318" lon="4.65164">
        <ele>403.89</ele>
        <time>2011-10-29T09:48:55Z</time>
      </trkpt>
      <trkpt lat="45.6231" lon="4.65164">
        <ele>403.89</ele>
        <time>2011-10-29T09:49:03Z</time>
      </trkpt>
      <trkpt lat="45.6229" lon="4.65168">
        <ele>403.89</ele>
        <time>2011-10-29T09:49:18Z</time>
      </trkpt>
      <trkpt lat="45.62271" lon="4.65177">
        <ele>404.85</ele>
        <time>2011-10-29T09:49:31Z</time>
      </trkpt>
      <trkpt lat="45.62248" lon="4.65189">
        <ele>404.85</ele>
        <time>2011-10-29T09:49:49Z</time>
      </trkpt>
      <trkpt lat="45.62247" lon="4.6519">
        <ele>404.37</ele>
        <time>2011-10-29T09:49:50Z</time>
      </trkpt>
      <trkpt lat="45.62225" lon="4.65203">
        <ele>403.89</ele>
        <time>2011-10-29T09:50:06Z</time>
      </trkpt>
      <trkpt lat="45.6222" lon="4.65209">
        <ele>403.89</ele>
        <time>2011-10-29T09:50:12Z</time>
      </trkpt>
      <trkpt lat="45.62221" lon="4.65237">
        <ele>402.93</ele>
        <time>2011-10-29T09:50:26Z</time>
      </trkpt>
      <trkpt lat="45.62222" lon="4.65264">
        <ele>401.97</ele>
        <time>2011-10-29T09:50:40Z</time>
      </trkpt>
      <trkpt lat="45.62224" lon="4.65274">
        <ele>401.49</ele>
        <time>2011-10-29T09:50:49Z</time>
      </trkpt>
      <trkpt lat="45.62225" lon="4.65287">
        <ele>400.53</ele>
        <time>2011-10-29T09:50:57Z</time>
      </trkpt>
      <trkpt lat="45.62228" lon="4.65319">
        <ele>398.6</ele>
        <time>2011-10-29T09:51:12Z</time>
      </trkpt>
      <trkpt lat="45.6223" lon="4.65346">
        <ele>397.64</ele>
        <time>2011-10-29T09:51:27Z</time>
      </trkpt>
      <trkpt lat="45.62233" lon="4.65375">
        <ele>396.2</ele>
        <time>2011-10-29T09:51:41Z</time>
      </trkpt>
      <trkpt lat="45.62234" lon="4.6538">
        <ele>396.2</ele>
        <time>2011-10-29T09:51:45Z</time>
      </trkpt>
      <trkpt lat="45.62234" lon="4.65388">
        <ele>395.72</ele>
        <time>2011-10-29T09:51:49Z</time>
      </trkpt>
      <trkpt lat="45.62237" lon="4.6541">
        <ele>394.76</ele>
        <time>2011-10-29T09:52:01Z</time>
      </trkpt>
      <trkpt lat="45.62238" lon="4.65413">
        <ele>394.76</ele>
        <time>2011-10-29T09:52:03Z</time>
      </trkpt>
      <trkpt lat="45.6224" lon="4.65433">
        <ele>393.32</ele>
        <time>2011-10-29T09:52:14Z</time>
      </trkpt>
      <trkpt lat="45.62243" lon="4.6546">
        <ele>391.87</ele>
        <time>2011-10-29T09:52:29Z</time>
      </trkpt>
      <trkpt lat="45.62245" lon="4.65492">
        <ele>390.91</ele>
        <time>2011-10-29T09:52:43Z</time>
      </trkpt>
      <trkpt lat="45.62246" lon="4.65502">
        <ele>390.43</ele>
        <time>2011-10-29T09:52:49Z</time>
      </trkpt>
      <trkpt lat="45.62247" lon="4.65528">
        <ele>388.99</ele>
        <time>2011-10-29T09:53:02Z</time>
      </trkpt>
      <trkpt lat="45.62246" lon="4.6556">
        <ele>387.55</ele>
        <time>2011-10-29T09:53:17Z</time>
      </trkpt>
      <trkpt lat="45.62244" lon="4.65592">
        <ele>386.11</ele>
        <time>2011-10-29T09:53:33Z</time>
      </trkpt>
      <trkpt lat="45.62243" lon="4.65628">
        <ele>384.66</ele>
        <time>2011-10-29T09:53:51Z</time>
      </trkpt>
      <trkpt lat="45.62243" lon="4.65661">
        <ele>383.22</ele>
        <time>2011-10-29T09:54:08Z</time>
      </trkpt>
      <trkpt lat="45.62244" lon="4.65675">
        <ele>382.74</ele>
        <time>2011-10-29T09:54:14Z</time>
      </trkpt>
      <trkpt lat="45.62243" lon="4.65715">
        <ele>381.78</ele>
        <time>2011-10-29T09:54:32Z</time>
      </trkpt>
      <trkpt lat="45.6224" lon="4.6574">
        <ele>380.82</ele>
        <time>2011-10-29T09:54:46Z</time>
      </trkpt>
      <trkpt lat="45.62235" lon="4.65772">
        <ele>379.86</ele>
        <time>2011-10-29T09:55:02Z</time>
      </trkpt>
      <trkpt lat="45.62232" lon="4.65794">
        <ele>379.38</ele>
        <time>2011-10-29T09:55:13Z</time>
      </trkpt>
      <trkpt lat="45.62226" lon="4.65818">
        <ele>378.42</ele>
        <time>2011-10-29T09:55:28Z</time>
      </trkpt>
      <trkpt lat="45.62222" lon="4.6585">
        <ele>377.45</ele>
        <time>2011-10-29T09:55:44Z</time>
      </trkpt>
      <trkpt lat="45.62218" lon="4.65884">
        <ele>376.97</ele>
        <time>2011-10-29T09:56:00Z</time>
      </trkpt>
      <trkpt lat="45.62214" lon="4.65918">
        <ele>375.53</ele>
        <time>2011-10-29T09:56:18Z</time>
      </trkpt>
      <trkpt lat="45.62212" lon="4.6595">
        <ele>374.57</ele>
        <time>2011-10-29T09:56:33Z</time>
      </trkpt>
      <trkpt lat="45.6221" lon="4.65974">
        <ele>374.57</ele>
        <time>2011-10-29T09:56:45Z</time>
      </trkpt>
      <trkpt lat="45.62205" lon="4.66006">
        <ele>374.09</ele>
        <time>2011-10-29T09:57:03Z</time>
      </trkpt>
      <trkpt lat="45.62202" lon="4.66038">
        <ele>373.13</ele>
        <time>2011-10-29T09:57:19Z</time>
      </trkpt>
      <trkpt lat="45.62199" lon="4.6607">
        <ele>371.69</ele>
        <time>2011-10-29T09:57:34Z</time>
      </trkpt>
      <trkpt lat="45.62198" lon="4.66082">
        <ele>371.69</ele>
        <time>2011-10-29T09:57:40Z</time>
      </trkpt>
      <trkpt lat="45.62194" lon="4.66114">
        <ele>371.21</ele>
        <time>2011-10-29T09:57:56Z</time>
      </trkpt>
      <trkpt lat="45.6219" lon="4.66136">
        <ele>370.73</ele>
        <time>2011-10-29T09:58:08Z</time>
      </trkpt>
      <trkpt lat="45.62185" lon="4.66166">
        <ele>369.28</ele>
        <time>2011-10-29T09:58:25Z</time>
      </trkpt>
      <trkpt lat="45.62183" lon="4.66176">
        <ele>369.28</ele>
        <time>2011-10-29T09:58:32Z</time>
      </trkpt>
      <trkpt lat="45.62181" lon="4.66181">
        <ele>368.8</ele>
        <time>2011-10-29T09:58:35Z</time>
      </trkpt>
      <trkpt lat="45.62179" lon="4.66187">
        <ele>368.32</ele>
        <time>2011-10-29T09:58:39Z</time>
      </trkpt>
      <trkpt lat="45.62174" lon="4.66216">
        <ele>367.36</ele>
        <time>2011-10-29T09:58:54Z</time>
      </trkpt>
      <trkpt lat="45.62164" lon="4.66246">
        <ele>365.92</ele>
        <time>2011-10-29T09:59:10Z</time>
      </trkpt>
      <trkpt lat="45.62155" lon="4.66267">
        <ele>364</ele>
        <time>2011-10-29T09:59:23Z</time>
      </trkpt>
      <trkpt lat="45.62143" lon="4.66289">
        <ele>362.07</ele>
        <time>2011-10-29T09:59:38Z</time>
      </trkpt>
      <trkpt lat="45.62141" lon="4.66295">
        <ele>361.59</ele>
        <time>2011-10-29T09:59:42Z</time>
      </trkpt>
      <trkpt lat="45.62129" lon="4.6632">
        <ele>359.19</ele>
        <time>2011-10-29T09:59:57Z</time>
      </trkpt>
      <trkpt lat="45.62118" lon="4.66345">
        <ele>357.75</ele>
        <time>2011-10-29T10:00:12Z</time>
      </trkpt>
      <trkpt lat="45.62107" lon="4.66368">
        <ele>356.31</ele>
        <time>2011-10-29T10:00:27Z</time>
      </trkpt>
      <trkpt lat="45.62096" lon="4.66398">
        <ele>354.86</ele>
        <time>2011-10-29T10:00:43Z</time>
      </trkpt>
      <trkpt lat="45.62088" lon="4.66429">
        <ele>352.46</ele>
        <time>2011-10-29T10:00:59Z</time>
      </trkpt>
      <trkpt lat="45.62088" lon="4.6643">
        <ele>352.46</ele>
        <time>2011-10-29T10:01:00Z</time>
      </trkpt>
      <trkpt lat="45.62084" lon="4.66446">
        <ele>351.5</ele>
        <time>2011-10-29T10:01:09Z</time>
      </trkpt>
      <trkpt lat="45.6208" lon="4.6648">
        <ele>349.58</ele>
        <time>2011-10-29T10:01:25Z</time>
      </trkpt>
      <trkpt lat="45.62079" lon="4.66491">
        <ele>348.62</ele>
        <time>2011-10-29T10:01:30Z</time>
      </trkpt>
      <trkpt lat="45.62081" lon="4.66497">
        <ele>348.13</ele>
        <time>2011-10-29T10:01:33Z</time>
      </trkpt>
      <trkpt lat="45.62081" lon="4.66505">
        <ele>347.65</ele>
        <time>2011-10-29T10:01:37Z</time>
      </trkpt>
      <trkpt lat="45.62082" lon="4.66526">
        <ele>346.21</ele>
        <time>2011-10-29T10:01:49Z</time>
      </trkpt>
      <trkpt lat="45.62082" lon="4.66554">
        <ele>345.25</ele>
        <time>2011-10-29T10:02:04Z</time>
      </trkpt>
      <trkpt lat="45.62079" lon="4.66584">
        <ele>343.33</ele>
        <time>2011-10-29T10:02:21Z</time>
      </trkpt>
      <trkpt lat="45.62074" lon="4.66607">
        <ele>341.89</ele>
        <time>2011-10-29T10:02:36Z</time>
      </trkpt>
      <trkpt lat="45.62071" lon="4.66638">
        <ele>340.92</ele>
        <time>2011-10-29T10:02:51Z</time>
      </trkpt>
      <trkpt lat="45.62071" lon="4.6665">
        <ele>341.41</ele>
        <time>2011-10-29T10:02:59Z</time>
      </trkpt>
      <trkpt lat="45.6207" lon="4.66664">
        <ele>340.92</ele>
        <time>2011-10-29T10:03:06Z</time>
      </trkpt>
      <trkpt lat="45.62071" lon="4.66673">
        <ele>341.89</ele>
        <time>2011-10-29T10:03:12Z</time>
      </trkpt>
      <trkpt lat="45.62068" lon="4.6668">
        <ele>341.89</ele>
        <time>2011-10-29T10:03:18Z</time>
      </trkpt>
      <trkpt lat="45.62055" lon="4.66687">
        <ele>341.89</ele>
        <time>2011-10-29T10:03:32Z</time>
      </trkpt>
      <trkpt lat="45.62038" lon="4.66708">
        <ele>343.33</ele>
        <time>2011-10-29T10:03:45Z</time>
      </trkpt>
      <trkpt lat="45.62027" lon="4.66731">
        <ele>344.29</ele>
        <time>2011-10-29T10:03:59Z</time>
      </trkpt>
      <trkpt lat="45.62019" lon="4.66754">
        <ele>345.73</ele>
        <time>2011-10-29T10:04:12Z</time>
      </trkpt>
      <trkpt lat="45.62017" lon="4.66774">
        <ele>347.17</ele>
        <time>2011-10-29T10:04:25Z</time>
      </trkpt>
      <trkpt lat="45.62016" lon="4.66788">
        <ele>348.13</ele>
        <time>2011-10-29T10:04:36Z</time>
      </trkpt>
      <trkpt lat="45.62016" lon="4.66791">
        <ele>348.13</ele>
        <time>2011-10-29T10:04:38Z</time>
      </trkpt>
      <trkpt lat="45.62011" lon="4.66806">
        <ele>348.62</ele>
        <time>2011-10-29T10:04:47Z</time>
      </trkpt>
      <trkpt lat="45.62009" lon="4.66809">
        <ele>349.1</ele>
        <time>2011-10-29T10:04:50Z</time>
      </trkpt>
      <trkpt lat="45.62006" lon="4.66815">
        <ele>349.58</ele>
        <time>2011-10-29T10:04:54Z</time>
      </trkpt>
      <trkpt lat="45.62004" lon="4.66819">
        <ele>349.58</ele>
        <time>2011-10-29T10:04:56Z</time>
      </trkpt>
      <trkpt lat="45.61992" lon="4.66831">
        <ele>351.5</ele>
        <time>2011-10-29T10:05:08Z</time>
      </trkpt>
      <trkpt lat="45.61988" lon="4.66834">
        <ele>351.98</ele>
        <time>2011-10-29T10:05:13Z</time>
      </trkpt>
      <trkpt lat="45.61987" lon="4.66837">
        <ele>352.46</ele>
        <time>2011-10-29T10:05:15Z</time>
      </trkpt>
      <trkpt lat="45.61976" lon="4.6685">
        <ele>353.42</ele>
        <time>2011-10-29T10:05:29Z</time>
      </trkpt>
      <trkpt lat="45.61975" lon="4.66854">
        <ele>353.42</ele>
        <time>2011-10-29T10:05:32Z</time>
      </trkpt>
      <trkpt lat="45.61968" lon="4.66867">
        <ele>353.9</ele>
        <time>2011-10-29T10:05:46Z</time>
      </trkpt>
      <trkpt lat="45.61962" lon="4.66884">
        <ele>354.86</ele>
        <time>2011-10-29T10:05:59Z</time>
      </trkpt>
      <trkpt lat="45.61962" lon="4.66887">
        <ele>355.34</ele>
        <time>2011-10-29T10:06:04Z</time>
      </trkpt>
      <trkpt lat="45.61958" lon="4.66904">
        <ele>355.83</ele>
        <time>2011-10-29T10:06:14Z</time>
      </trkpt>
      <trkpt lat="45.61955" lon="4.66929">
        <ele>357.27</ele>
        <time>2011-10-29T10:06:28Z</time>
      </trkpt>
      <trkpt lat="45.61952" lon="4.66952">
        <ele>357.75</ele>
        <time>2011-10-29T10:06:42Z</time>
      </trkpt>
      <trkpt lat="45.61948" lon="4.66977">
        <ele>358.23</ele>
        <time>2011-10-29T10:06:55Z</time>
      </trkpt>
      <trkpt lat="45.61945" lon="4.66992">
        <ele>358.71</ele>
        <time>2011-10-29T10:07:05Z</time>
      </trkpt>
      <trkpt lat="45.61943" lon="4.67011">
        <ele>359.67</ele>
        <time>2011-10-29T10:07:19Z</time>
      </trkpt>
      <trkpt lat="45.61944" lon="4.67011">
        <ele>360.15</ele>
        <time>2011-10-29T10:07:21Z</time>
      </trkpt>
      <trkpt lat="45.61959" lon="4.67024">
        <ele>363.04</ele>
        <time>2011-10-29T10:07:38Z</time>
      </trkpt>
      <trkpt lat="45.61958" lon="4.67038">
        <ele>362.55</ele>
        <time>2011-10-29T10:07:48Z</time>
      </trkpt>
      <trkpt lat="45.61952" lon="4.6706">
        <ele>363.04</ele>
        <time>2011-10-29T10:07:57Z</time>
      </trkpt>
      <trkpt lat="45.61939" lon="4.67084">
        <ele>362.07</ele>
        <time>2011-10-29T10:08:09Z</time>
      </trkpt>
      <trkpt lat="45.61933" lon="4.67097">
        <ele>361.59</ele>
        <time>2011-10-29T10:08:22Z</time>
      </trkpt>
      <trkpt lat="45.61933" lon="4.67097">
        <ele>361.59</ele>
        <time>2011-10-29T10:08:49Z</time>
      </trkpt>
      <trkpt lat="45.61932" lon="4.67106">
        <ele>361.59</ele>
        <time>2011-10-29T10:08:57Z</time>
      </trkpt>
      <trkpt lat="45.61944" lon="4.67112">
        <ele>361.11</ele>
        <time>2011-10-29T10:09:02Z</time>
      </trkpt>
      <trkpt lat="45.61952" lon="4.67114">
        <ele>361.11</ele>
        <time>2011-10-29T10:09:08Z</time>
      </trkpt>
      <trkpt lat="45.61963" lon="4.67123">
        <ele>361.11</ele>
        <time>2011-10-29T10:09:17Z</time>
      </trkpt>
      <trkpt lat="45.61969" lon="4.67129">
        <ele>361.59</ele>
        <time>2011-10-29T10:09:29Z</time>
      </trkpt>
      <trkpt lat="45.61969" lon="4.67132">
        <ele>361.11</ele>
        <time>2011-10-29T10:09:44Z</time>
      </trkpt>
      <trkpt lat="45.61969" lon="4.67133">
        <ele>362.07</ele>
        <time>2011-10-29T10:10:03Z</time>
      </trkpt>
      <trkpt lat="45.61969" lon="4.67133">
        <ele>361.11</ele>
        <time>2011-10-29T10:10:25Z</time>
      </trkpt>
      <trkpt lat="45.61969" lon="4.67133">
        <ele>361.59</ele>
        <time>2011-10-29T10:10:36Z</time>
      </trkpt>
      <trkpt lat="45.61969" lon="4.67133">
        <ele>361.59</ele>
        <time>2011-10-29T10:11:07Z</time>
      </trkpt>
      <trkpt lat="45.61969" lon="4.67133">
        <ele>360.15</ele>
        <time>2011-10-29T10:11:25Z</time>
      </trkpt>
      <trkpt lat="45.61969" lon="4.67133">
        <ele>362.07</ele>
        <time>2011-10-29T10:11:27Z</time>
      </trkpt>
      <trkpt lat="45.61968" lon="4.67133">
        <ele>361.11</ele>
        <time>2011-10-29T10:11:53Z</time>
      </trkpt>
      <trkpt lat="45.61968" lon="4.67133">
        <ele>360.63</ele>
        <time>2011-10-29T10:12:21Z</time>
      </trkpt>
      <trkpt lat="45.61968" lon="4.67133">
        <ele>364.48</ele>
        <time>2011-10-29T10:12:24Z</time>
      </trkpt>
      <trkpt lat="45.61968" lon="4.67134">
        <ele>361.11</ele>
        <time>2011-10-29T10:12:36Z</time>
      </trkpt>
      <trkpt lat="45.61966" lon="4.67134">
        <ele>361.59</ele>
        <time>2011-10-29T10:12:54Z</time>
      </trkpt>
      <trkpt lat="45.61966" lon="4.67134">
        <ele>362.07</ele>
        <time>2011-10-29T10:13:04Z</time>
      </trkpt>
      <trkpt lat="45.61966" lon="4.67136">
        <ele>362.55</ele>
        <time>2011-10-29T10:13:05Z</time>
      </trkpt>
      <trkpt lat="45.61957" lon="4.67135">
        <ele>362.07</ele>
        <time>2011-10-29T10:18:24Z</time>
      </trkpt>
      <trkpt lat="45.61944" lon="4.67122">
        <ele>362.07</ele>
        <time>2011-10-29T10:18:36Z</time>
      </trkpt>
      <trkpt lat="45.61932" lon="4.67121">
        <ele>362.07</ele>
        <time>2011-10-29T10:18:48Z</time>
      </trkpt>
      <trkpt lat="45.61922" lon="4.67125">
        <ele>361.59</ele>
        <time>2011-10-29T10:19:01Z</time>
      </trkpt>
      <trkpt lat="45.61912" lon="4.67119">
        <ele>362.07</ele>
        <time>2011-10-29T10:19:24Z</time>
      </trkpt>
      <trkpt lat="45.61908" lon="4.67119">
        <ele>361.59</ele>
        <time>2011-10-29T10:19:40Z</time>
      </trkpt>
      <trkpt lat="45.61903" lon="4.67115">
        <ele>361.59</ele>
        <time>2011-10-29T10:19:45Z</time>
      </trkpt>
      <trkpt lat="45.61906" lon="4.671">
        <ele>362.07</ele>
        <time>2011-10-29T10:19:50Z</time>
      </trkpt>
      <trkpt lat="45.619" lon="4.67083">
        <ele>361.11</ele>
        <time>2011-10-29T10:20:06Z</time>
      </trkpt>
      <trkpt lat="45.61901" lon="4.6708">
        <ele>359.67</ele>
        <time>2011-10-29T10:20:12Z</time>
      </trkpt>
      <trkpt lat="45.6189" lon="4.67061">
        <ele>358.71</ele>
        <time>2011-10-29T10:20:27Z</time>
      </trkpt>
      <trkpt lat="45.61886" lon="4.6706">
        <ele>357.27</ele>
        <time>2011-10-29T10:20:32Z</time>
      </trkpt>
      <trkpt lat="45.6188" lon="4.6706">
        <ele>356.79</ele>
        <time>2011-10-29T10:20:37Z</time>
      </trkpt>
      <trkpt lat="45.61876" lon="4.67061">
        <ele>356.31</ele>
        <time>2011-10-29T10:20:41Z</time>
      </trkpt>
      <trkpt lat="45.61867" lon="4.67059">
        <ele>354.86</ele>
        <time>2011-10-29T10:20:47Z</time>
      </trkpt>
      <trkpt lat="45.61855" lon="4.67043">
        <ele>351.98</ele>
        <time>2011-10-29T10:21:00Z</time>
      </trkpt>
      <trkpt lat="45.61848" lon="4.67029">
        <ele>350.54</ele>
        <time>2011-10-29T10:21:12Z</time>
      </trkpt>
      <trkpt lat="45.61845" lon="4.67031">
        <ele>351.02</ele>
        <time>2011-10-29T10:21:16Z</time>
      </trkpt>
      <trkpt lat="45.61825" lon="4.67047">
        <ele>349.1</ele>
        <time>2011-10-29T10:21:33Z</time>
      </trkpt>
      <trkpt lat="45.61814" lon="4.67061">
        <ele>349.58</ele>
        <time>2011-10-29T10:21:45Z</time>
      </trkpt>
      <trkpt lat="45.61802" lon="4.67083">
        <ele>350.06</ele>
        <time>2011-10-29T10:21:58Z</time>
      </trkpt>
      <trkpt lat="45.61794" lon="4.67095">
        <ele>349.1</ele>
        <time>2011-10-29T10:22:12Z</time>
      </trkpt>
      <trkpt lat="45.61786" lon="4.67091">
        <ele>347.65</ele>
        <time>2011-10-29T10:22:27Z</time>
      </trkpt>
      <trkpt lat="45.61785" lon="4.67091">
        <ele>347.17</ele>
        <time>2011-10-29T10:22:28Z</time>
      </trkpt>
      <trkpt lat="45.61776" lon="4.6709">
        <ele>345.73</ele>
        <time>2011-10-29T10:22:36Z</time>
      </trkpt>
      <trkpt lat="45.61748" lon="4.67086">
        <ele>342.37</ele>
        <time>2011-10-29T10:22:55Z</time>
      </trkpt>
      <trkpt lat="45.61732" lon="4.67092">
        <ele>339.96</ele>
        <time>2011-10-29T10:23:10Z</time>
      </trkpt>
      <trkpt lat="45.61716" lon="4.67097">
        <ele>339</ele>
        <time>2011-10-29T10:23:21Z</time>
      </trkpt>
      <trkpt lat="45.61703" lon="4.67102">
        <ele>337.56</ele>
        <time>2011-10-29T10:23:31Z</time>
      </trkpt>
      <trkpt lat="45.61696" lon="4.67102">
        <ele>336.12</ele>
        <time>2011-10-29T10:23:45Z</time>
      </trkpt>
      <trkpt lat="45.6168" lon="4.67107">
        <ele>334.2</ele>
        <time>2011-10-29T10:23:59Z</time>
      </trkpt>
      <trkpt lat="45.61674" lon="4.67102">
        <ele>333.23</ele>
        <time>2011-10-29T10:24:06Z</time>
      </trkpt>
      <trkpt lat="45.6166" lon="4.67086">
        <ele>330.35</ele>
        <time>2011-10-29T10:24:23Z</time>
      </trkpt>
      <trkpt lat="45.61655" lon="4.67081">
        <ele>329.87</ele>
        <time>2011-10-29T10:24:28Z</time>
      </trkpt>
      <trkpt lat="45.61643" lon="4.67073">
        <ele>329.39</ele>
        <time>2011-10-29T10:24:43Z</time>
      </trkpt>
      <trkpt lat="45.61635" lon="4.67067">
        <ele>328.91</ele>
        <time>2011-10-29T10:24:51Z</time>
      </trkpt>
      <trkpt lat="45.61632" lon="4.6706">
        <ele>328.43</ele>
        <time>2011-10-29T10:24:56Z</time>
      </trkpt>
      <trkpt lat="45.61628" lon="4.67055">
        <ele>328.43</ele>
        <time>2011-10-29T10:25:00Z</time>
      </trkpt>
      <trkpt lat="45.61626" lon="4.67044">
        <ele>327.95</ele>
        <time>2011-10-29T10:25:06Z</time>
      </trkpt>
      <trkpt lat="45.61611" lon="4.67018">
        <ele>327.95</ele>
        <time>2011-10-29T10:25:21Z</time>
      </trkpt>
      <trkpt lat="45.6161" lon="4.67017">
        <ele>326.99</ele>
        <time>2011-10-29T10:25:22Z</time>
      </trkpt>
      <trkpt lat="45.61603" lon="4.67012">
        <ele>326.99</ele>
        <time>2011-10-29T10:25:28Z</time>
      </trkpt>
      <trkpt lat="45.616" lon="4.67011">
        <ele>327.47</ele>
        <time>2011-10-29T10:25:31Z</time>
      </trkpt>
      <trkpt lat="45.61589" lon="4.67014">
        <ele>327.47</ele>
        <time>2011-10-29T10:25:39Z</time>
      </trkpt>
      <trkpt lat="45.61577" lon="4.67016">
        <ele>327.47</ele>
        <time>2011-10-29T10:25:49Z</time>
      </trkpt>
      <trkpt lat="45.61566" lon="4.67011">
        <ele>326.99</ele>
        <time>2011-10-29T10:26:01Z</time>
      </trkpt>
      <trkpt lat="45.6156" lon="4.67003">
        <ele>326.99</ele>
        <time>2011-10-29T10:26:08Z</time>
      </trkpt>
      <trkpt lat="45.61555" lon="4.66991">
        <ele>326.99</ele>
        <time>2011-10-29T10:26:15Z</time>
      </trkpt>
      <trkpt lat="45.61552" lon="4.66971">
        <ele>327.47</ele>
        <time>2011-10-29T10:26:27Z</time>
      </trkpt>
      <trkpt lat="45.61545" lon="4.66945">
        <ele>329.39</ele>
        <time>2011-10-29T10:26:43Z</time>
      </trkpt>
      <trkpt lat="45.61543" lon="4.66937">
        <ele>329.39</ele>
        <time>2011-10-29T10:26:47Z</time>
      </trkpt>
      <trkpt lat="45.6154" lon="4.66921">
        <ele>331.31</ele>
        <time>2011-10-29T10:27:02Z</time>
      </trkpt>
      <trkpt lat="45.61539" lon="4.66917">
        <ele>331.31</ele>
        <time>2011-10-29T10:27:14Z</time>
      </trkpt>
      <trkpt lat="45.61537" lon="4.6693">
        <ele>332.75</ele>
        <time>2011-10-29T10:27:39Z</time>
      </trkpt>
      <trkpt lat="45.61549" lon="4.66943">
        <ele>334.2</ele>
        <time>2011-10-29T10:27:52Z</time>
      </trkpt>
      <trkpt lat="45.61559" lon="4.66949">
        <ele>336.6</ele>
        <time>2011-10-29T10:28:02Z</time>
      </trkpt>
      <trkpt lat="45.61573" lon="4.66955">
        <ele>337.56</ele>
        <time>2011-10-29T10:28:16Z</time>
      </trkpt>
      <trkpt lat="45.61574" lon="4.66954">
        <ele>338.04</ele>
        <time>2011-10-29T10:28:17Z</time>
      </trkpt>
      <trkpt lat="45.61584" lon="4.66946">
        <ele>338.52</ele>
        <time>2011-10-29T10:28:25Z</time>
      </trkpt>
      <trkpt lat="45.61586" lon="4.66944">
        <ele>338.52</ele>
        <time>2011-10-29T10:28:27Z</time>
      </trkpt>
      <trkpt lat="45.61595" lon="4.66921">
        <ele>341.41</ele>
        <time>2011-10-29T10:28:43Z</time>
      </trkpt>
      <trkpt lat="45.61597" lon="4.66913">
        <ele>342.37</ele>
        <time>2011-10-29T10:28:49Z</time>
      </trkpt>
      <trkpt lat="45.61599" lon="4.66891">
        <ele>345.25</ele>
        <time>2011-10-29T10:29:04Z</time>
      </trkpt>
      <trkpt lat="45.616" lon="4.66885">
        <ele>345.25</ele>
        <time>2011-10-29T10:29:07Z</time>
      </trkpt>
      <trkpt lat="45.61601" lon="4.66878">
        <ele>345.73</ele>
        <time>2011-10-29T10:29:13Z</time>
      </trkpt>
      <trkpt lat="45.61606" lon="4.66866">
        <ele>347.17</ele>
        <time>2011-10-29T10:29:21Z</time>
      </trkpt>
      <trkpt lat="45.6161" lon="4.66861">
        <ele>347.17</ele>
        <time>2011-10-29T10:29:25Z</time>
      </trkpt>
      <trkpt lat="45.61623" lon="4.66842">
        <ele>347.65</ele>
        <time>2011-10-29T10:29:40Z</time>
      </trkpt>
      <trkpt lat="45.61627" lon="4.66838">
        <ele>347.65</ele>
        <time>2011-10-29T10:29:43Z</time>
      </trkpt>
      <trkpt lat="45.61631" lon="4.66836">
        <ele>348.13</ele>
        <time>2011-10-29T10:29:46Z</time>
      </trkpt>
      <trkpt lat="45.61646" lon="4.66818">
        <ele>348.62</ele>
        <time>2011-10-29T10:30:01Z</time>
      </trkpt>
      <trkpt lat="45.61654" lon="4.66801">
        <ele>349.1</ele>
        <time>2011-10-29T10:30:12Z</time>
      </trkpt>
      <trkpt lat="45.61657" lon="4.66772">
        <ele>350.06</ele>
        <time>2011-10-29T10:30:27Z</time>
      </trkpt>
      <trkpt lat="45.61658" lon="4.66758">
        <ele>351.5</ele>
        <time>2011-10-29T10:30:35Z</time>
      </trkpt>
      <trkpt lat="45.61658" lon="4.6674">
        <ele>352.46</ele>
        <time>2011-10-29T10:30:46Z</time>
      </trkpt>
      <trkpt lat="45.61669" lon="4.66721">
        <ele>353.9</ele>
        <time>2011-10-29T10:31:00Z</time>
      </trkpt>
      <trkpt lat="45.6168" lon="4.6671">
        <ele>357.27</ele>
        <time>2011-10-29T10:31:10Z</time>
      </trkpt>
      <trkpt lat="45.61696" lon="4.66698">
        <ele>354.86</ele>
        <time>2011-10-29T10:31:25Z</time>
      </trkpt>
      <trkpt lat="45.61705" lon="4.66692">
        <ele>354.86</ele>
        <time>2011-10-29T10:31:33Z</time>
      </trkpt>
      <trkpt lat="45.61719" lon="4.66683">
        <ele>353.42</ele>
        <time>2011-10-29T10:31:44Z</time>
      </trkpt>
      <trkpt lat="45.61724" lon="4.6668">
        <ele>353.42</ele>
        <time>2011-10-29T10:31:49Z</time>
      </trkpt>
      <trkpt lat="45.61728" lon="4.66677">
        <ele>354.38</ele>
        <time>2011-10-29T10:31:53Z</time>
      </trkpt>
      <trkpt lat="45.6173" lon="4.66676">
        <ele>354.38</ele>
        <time>2011-10-29T10:31:55Z</time>
      </trkpt>
      <trkpt lat="45.61732" lon="4.66675">
        <ele>354.38</ele>
        <time>2011-10-29T10:32:09Z</time>
      </trkpt>
      <trkpt lat="45.61735" lon="4.66672">
        <ele>354.38</ele>
        <time>2011-10-29T10:32:12Z</time>
      </trkpt>
      <trkpt lat="45.61738" lon="4.66657">
        <ele>354.86</ele>
        <time>2011-10-29T10:32:22Z</time>
      </trkpt>
      <trkpt lat="45.6173" lon="4.66631">
        <ele>356.31</ele>
        <time>2011-10-29T10:32:37Z</time>
      </trkpt>
      <trkpt lat="45.61725" lon="4.66615">
        <ele>357.27</ele>
        <time>2011-10-29T10:32:47Z</time>
      </trkpt>
      <trkpt lat="45.61724" lon="4.66612">
        <ele>351.5</ele>
        <time>2011-10-29T10:32:50Z</time>
      </trkpt>
      <trkpt lat="45.61724" lon="4.6661">
        <ele>355.34</ele>
        <time>2011-10-29T10:32:51Z</time>
      </trkpt>
      <trkpt lat="45.61723" lon="4.66606">
        <ele>348.13</ele>
        <time>2011-10-29T10:32:53Z</time>
      </trkpt>
      <trkpt lat="45.61722" lon="4.66604">
        <ele>364.96</ele>
        <time>2011-10-29T10:32:54Z</time>
      </trkpt>
      <trkpt lat="45.61722" lon="4.66603">
        <ele>358.23</ele>
        <time>2011-10-29T10:32:55Z</time>
      </trkpt>
      <trkpt lat="45.61721" lon="4.66601">
        <ele>365.92</ele>
        <time>2011-10-29T10:32:56Z</time>
      </trkpt>
      <trkpt lat="45.6172" lon="4.66599">
        <ele>358.71</ele>
        <time>2011-10-29T10:32:57Z</time>
      </trkpt>
      <trkpt lat="45.6171" lon="4.66575">
        <ele>359.67</ele>
        <time>2011-10-29T10:33:12Z</time>
      </trkpt>
      <trkpt lat="45.61703" lon="4.66557">
        <ele>360.15</ele>
        <time>2011-10-29T10:33:23Z</time>
      </trkpt>
      <trkpt lat="45.61699" lon="4.66547">
        <ele>361.11</ele>
        <time>2011-10-29T10:33:31Z</time>
      </trkpt>
      <trkpt lat="45.61698" lon="4.66533">
        <ele>362.55</ele>
        <time>2011-10-29T10:33:41Z</time>
      </trkpt>
      <trkpt lat="45.61701" lon="4.66515">
        <ele>363.52</ele>
        <time>2011-10-29T10:33:52Z</time>
      </trkpt>
      <trkpt lat="45.61707" lon="4.66492">
        <ele>363.52</ele>
        <time>2011-10-29T10:34:05Z</time>
      </trkpt>
      <trkpt lat="45.6171" lon="4.66482">
        <ele>364</ele>
        <time>2011-10-29T10:34:09Z</time>
      </trkpt>
      <trkpt lat="45.61714" lon="4.6647">
        <ele>364.48</ele>
        <time>2011-10-29T10:34:18Z</time>
      </trkpt>
      <trkpt lat="45.61716" lon="4.6646">
        <ele>364.48</ele>
        <time>2011-10-29T10:34:23Z</time>
      </trkpt>
      <trkpt lat="45.61724" lon="4.66434">
        <ele>364.96</ele>
        <time>2011-10-29T10:34:38Z</time>
      </trkpt>
      <trkpt lat="45.61724" lon="4.66428">
        <ele>364.96</ele>
        <time>2011-10-29T10:34:41Z</time>
      </trkpt>
      <trkpt lat="45.6173" lon="4.66405">
        <ele>362.07</ele>
        <time>2011-10-29T10:34:55Z</time>
      </trkpt>
      <trkpt lat="45.6173" lon="4.66403">
        <ele>365.44</ele>
        <time>2011-10-29T10:34:56Z</time>
      </trkpt>
      <trkpt lat="45.61736" lon="4.66375">
        <ele>365.92</ele>
        <time>2011-10-29T10:35:12Z</time>
      </trkpt>
      <trkpt lat="45.61739" lon="4.66367">
        <ele>366.4</ele>
        <time>2011-10-29T10:35:16Z</time>
      </trkpt>
      <trkpt lat="45.61739" lon="4.66363">
        <ele>366.88</ele>
        <time>2011-10-29T10:35:22Z</time>
      </trkpt>
      <trkpt lat="45.61743" lon="4.66351">
        <ele>367.36</ele>
        <time>2011-10-29T10:35:27Z</time>
      </trkpt>
      <trkpt lat="45.61747" lon="4.66341">
        <ele>367.36</ele>
        <time>2011-10-29T10:35:36Z</time>
      </trkpt>
      <trkpt lat="45.61755" lon="4.6632">
        <ele>368.32</ele>
        <time>2011-10-29T10:35:46Z</time>
      </trkpt>
      <trkpt lat="45.61761" lon="4.66304">
        <ele>368.32</ele>
        <time>2011-10-29T10:35:56Z</time>
      </trkpt>
      <trkpt lat="45.61765" lon="4.66297">
        <ele>368.8</ele>
        <time>2011-10-29T10:36:04Z</time>
      </trkpt>
      <trkpt lat="45.6177" lon="4.6628">
        <ele>369.28</ele>
        <time>2011-10-29T10:36:11Z</time>
      </trkpt>
      <trkpt lat="45.61772" lon="4.66275">
        <ele>369.76</ele>
        <time>2011-10-29T10:36:16Z</time>
      </trkpt>
      <trkpt lat="45.61781" lon="4.66251">
        <ele>370.24</ele>
        <time>2011-10-29T10:36:28Z</time>
      </trkpt>
      <trkpt lat="45.61781" lon="4.6625">
        <ele>370.73</ele>
        <time>2011-10-29T10:36:32Z</time>
      </trkpt>
      <trkpt lat="45.61788" lon="4.66232">
        <ele>371.21</ele>
        <time>2011-10-29T10:36:40Z</time>
      </trkpt>
      <trkpt lat="45.61789" lon="4.6623">
        <ele>371.69</ele>
        <time>2011-10-29T10:36:42Z</time>
      </trkpt>
      <trkpt lat="45.61794" lon="4.66213">
        <ele>372.65</ele>
        <time>2011-10-29T10:36:53Z</time>
      </trkpt>
      <trkpt lat="45.61796" lon="4.66202">
        <ele>372.65</ele>
        <time>2011-10-29T10:36:58Z</time>
      </trkpt>
      <trkpt lat="45.61798" lon="4.66196">
        <ele>373.61</ele>
        <time>2011-10-29T10:37:03Z</time>
      </trkpt>
      <trkpt lat="45.618" lon="4.6619">
        <ele>373.61</ele>
        <time>2011-10-29T10:37:08Z</time>
      </trkpt>
      <trkpt lat="45.61802" lon="4.66181">
        <ele>375.05</ele>
        <time>2011-10-29T10:37:16Z</time>
      </trkpt>
      <trkpt lat="45.61805" lon="4.6617">
        <ele>375.05</ele>
        <time>2011-10-29T10:37:20Z</time>
      </trkpt>
      <trkpt lat="45.61808" lon="4.66164">
        <ele>375.53</ele>
        <time>2011-10-29T10:37:22Z</time>
      </trkpt>
      <trkpt lat="45.61809" lon="4.66161">
        <ele>375.05</ele>
        <time>2011-10-29T10:37:27Z</time>
      </trkpt>
      <trkpt lat="45.6181" lon="4.6614">
        <ele>376.01</ele>
        <time>2011-10-29T10:37:38Z</time>
      </trkpt>
      <trkpt lat="45.6181" lon="4.66139">
        <ele>376.01</ele>
        <time>2011-10-29T10:37:39Z</time>
      </trkpt>
      <trkpt lat="45.61809" lon="4.6612">
        <ele>376.97</ele>
        <time>2011-10-29T10:37:49Z</time>
      </trkpt>
      <trkpt lat="45.61807" lon="4.6611">
        <ele>377.94</ele>
        <time>2011-10-29T10:37:54Z</time>
      </trkpt>
      <trkpt lat="45.61806" lon="4.66081">
        <ele>378.42</ele>
        <time>2011-10-29T10:38:11Z</time>
      </trkpt>
      <trkpt lat="45.61805" lon="4.66068">
        <ele>379.38</ele>
        <time>2011-10-29T10:38:16Z</time>
      </trkpt>
      <trkpt lat="45.61803" lon="4.6605">
        <ele>381.3</ele>
        <time>2011-10-29T10:38:27Z</time>
      </trkpt>
      <trkpt lat="45.61801" lon="4.66021">
        <ele>381.78</ele>
        <time>2011-10-29T10:38:43Z</time>
      </trkpt>
      <trkpt lat="45.61805" lon="4.65994">
        <ele>382.26</ele>
        <time>2011-10-29T10:38:58Z</time>
      </trkpt>
      <trkpt lat="45.61806" lon="4.65991">
        <ele>383.22</ele>
        <time>2011-10-29T10:39:01Z</time>
      </trkpt>
      <trkpt lat="45.61809" lon="4.65983">
        <ele>383.22</ele>
        <time>2011-10-29T10:39:05Z</time>
      </trkpt>
      <trkpt lat="45.61809" lon="4.65976">
        <ele>383.7</ele>
        <time>2011-10-29T10:39:10Z</time>
      </trkpt>
      <trkpt lat="45.61807" lon="4.6596">
        <ele>385.15</ele>
        <time>2011-10-29T10:39:18Z</time>
      </trkpt>
      <trkpt lat="45.61807" lon="4.65959">
        <ele>385.15</ele>
        <time>2011-10-29T10:39:20Z</time>
      </trkpt>
      <trkpt lat="45.61802" lon="4.65945">
        <ele>386.59</ele>
        <time>2011-10-29T10:39:29Z</time>
      </trkpt>
      <trkpt lat="45.61795" lon="4.65934">
        <ele>387.55</ele>
        <time>2011-10-29T10:39:39Z</time>
      </trkpt>
      <trkpt lat="45.61787" lon="4.65923">
        <ele>388.03</ele>
        <time>2011-10-29T10:39:48Z</time>
      </trkpt>
      <trkpt lat="45.61782" lon="4.65913">
        <ele>388.51</ele>
        <time>2011-10-29T10:39:52Z</time>
      </trkpt>
      <trkpt lat="45.6178" lon="4.65908">
        <ele>389.47</ele>
        <time>2011-10-29T10:39:59Z</time>
      </trkpt>
      <trkpt lat="45.61772" lon="4.6589">
        <ele>390.43</ele>
        <time>2011-10-29T10:40:09Z</time>
      </trkpt>
      <trkpt lat="45.61772" lon="4.65889">
        <ele>389.95</ele>
        <time>2011-10-29T10:40:10Z</time>
      </trkpt>
      <trkpt lat="45.61767" lon="4.6588">
        <ele>390.43</ele>
        <time>2011-10-29T10:40:14Z</time>
      </trkpt>
      <trkpt lat="45.61764" lon="4.6587">
        <ele>390.43</ele>
        <time>2011-10-29T10:40:21Z</time>
      </trkpt>
      <trkpt lat="45.61766" lon="4.65865">
        <ele>390.91</ele>
        <time>2011-10-29T10:40:24Z</time>
      </trkpt>
      <trkpt lat="45.61765" lon="4.65855">
        <ele>390.91</ele>
        <time>2011-10-29T10:40:31Z</time>
      </trkpt>
      <trkpt lat="45.61777" lon="4.65858">
        <ele>392.36</ele>
        <time>2011-10-29T10:40:41Z</time>
      </trkpt>
      <trkpt lat="45.61779" lon="4.65859">
        <ele>392.36</ele>
        <time>2011-10-29T10:40:42Z</time>
      </trkpt>
      <trkpt lat="45.61785" lon="4.65862">
        <ele>392.84</ele>
        <time>2011-10-29T10:40:47Z</time>
      </trkpt>
      <trkpt lat="45.61794" lon="4.65861">
        <ele>393.8</ele>
        <time>2011-10-29T10:40:56Z</time>
      </trkpt>
      <trkpt lat="45.61803" lon="4.65859">
        <ele>394.76</ele>
        <time>2011-10-29T10:41:04Z</time>
      </trkpt>
      <trkpt lat="45.61813" lon="4.65854">
        <ele>395.72</ele>
        <time>2011-10-29T10:41:13Z</time>
      </trkpt>
      <trkpt lat="45.61822" lon="4.65849">
        <ele>396.2</ele>
        <time>2011-10-29T10:41:21Z</time>
      </trkpt>
      <trkpt lat="45.61835" lon="4.6584">
        <ele>396.68</ele>
        <time>2011-10-29T10:41:31Z</time>
      </trkpt>
      <trkpt lat="45.61837" lon="4.65839">
        <ele>396.2</ele>
        <time>2011-10-29T10:41:34Z</time>
      </trkpt>
      <trkpt lat="45.61851" lon="4.6583">
        <ele>396.68</ele>
        <time>2011-10-29T10:41:43Z</time>
      </trkpt>
      <trkpt lat="45.61851" lon="4.65828">
        <ele>397.16</ele>
        <time>2011-10-29T10:41:46Z</time>
      </trkpt>
      <trkpt lat="45.6186" lon="4.65817">
        <ele>397.64</ele>
        <time>2011-10-29T10:41:57Z</time>
      </trkpt>
      <trkpt lat="45.61864" lon="4.65814">
        <ele>397.64</ele>
        <time>2011-10-29T10:42:03Z</time>
      </trkpt>
      <trkpt lat="45.61875" lon="4.65799">
        <ele>397.64</ele>
        <time>2011-10-29T10:42:13Z</time>
      </trkpt>
      <trkpt lat="45.61875" lon="4.65798">
        <ele>398.12</ele>
        <time>2011-10-29T10:42:14Z</time>
      </trkpt>
      <trkpt lat="45.61883" lon="4.65782">
        <ele>398.12</ele>
        <time>2011-10-29T10:42:26Z</time>
      </trkpt>
      <trkpt lat="45.61888" lon="4.65767">
        <ele>398.6</ele>
        <time>2011-10-29T10:42:35Z</time>
      </trkpt>
      <trkpt lat="45.61893" lon="4.65755">
        <ele>399.57</ele>
        <time>2011-10-29T10:42:43Z</time>
      </trkpt>
      <trkpt lat="45.61898" lon="4.6574">
        <ele>399.57</ele>
        <time>2011-10-29T10:42:51Z</time>
      </trkpt>
      <trkpt lat="45.619" lon="4.65728">
        <ele>401.01</ele>
        <time>2011-10-29T10:42:57Z</time>
      </trkpt>
      <trkpt lat="45.619" lon="4.6572">
        <ele>401.01</ele>
        <time>2011-10-29T10:43:02Z</time>
      </trkpt>
      <trkpt lat="45.61901" lon="4.65708">
        <ele>402.45</ele>
        <time>2011-10-29T10:43:10Z</time>
      </trkpt>
      <trkpt lat="45.61901" lon="4.65696">
        <ele>402.93</ele>
        <time>2011-10-29T10:43:17Z</time>
      </trkpt>
      <trkpt lat="45.61903" lon="4.65687">
        <ele>403.41</ele>
        <time>2011-10-29T10:43:22Z</time>
      </trkpt>
      <trkpt lat="45.61904" lon="4.65673">
        <ele>404.37</ele>
        <time>2011-10-29T10:43:30Z</time>
      </trkpt>
      <trkpt lat="45.61909" lon="4.65655">
        <ele>405.33</ele>
        <time>2011-10-29T10:43:40Z</time>
      </trkpt>
      <trkpt lat="45.6191" lon="4.65652">
        <ele>405.81</ele>
        <time>2011-10-29T10:43:43Z</time>
      </trkpt>
      <trkpt lat="45.61915" lon="4.65634">
        <ele>407.74</ele>
        <time>2011-10-29T10:43:54Z</time>
      </trkpt>
      <trkpt lat="45.61915" lon="4.65633">
        <ele>408.22</ele>
        <time>2011-10-29T10:43:56Z</time>
      </trkpt>
      <trkpt lat="45.6192" lon="4.65621">
        <ele>408.7</ele>
        <time>2011-10-29T10:44:03Z</time>
      </trkpt>
      <trkpt lat="45.61926" lon="4.65599">
        <ele>408.7</ele>
        <time>2011-10-29T10:44:14Z</time>
      </trkpt>
      <trkpt lat="45.61926" lon="4.65599">
        <ele>409.18</ele>
        <time>2011-10-29T10:44:15Z</time>
      </trkpt>
      <trkpt lat="45.61927" lon="4.65587">
        <ele>409.18</ele>
        <time>2011-10-29T10:44:20Z</time>
      </trkpt>
      <trkpt lat="45.61929" lon="4.65579">
        <ele>408.7</ele>
        <time>2011-10-29T10:44:28Z</time>
      </trkpt>
      <trkpt lat="45.61931" lon="4.65561">
        <ele>409.18</ele>
        <time>2011-10-29T10:44:34Z</time>
      </trkpt>
      <trkpt lat="45.61931" lon="4.65556">
        <ele>409.18</ele>
        <time>2011-10-29T10:44:36Z</time>
      </trkpt>
      <trkpt lat="45.61932" lon="4.65555">
        <ele>408.7</ele>
        <time>2011-10-29T10:44:42Z</time>
      </trkpt>
      <trkpt lat="45.61933" lon="4.6555">
        <ele>408.7</ele>
        <time>2011-10-29T10:44:44Z</time>
      </trkpt>
      <trkpt lat="45.61934" lon="4.65546">
        <ele>408.7</ele>
        <time>2011-10-29T10:44:46Z</time>
      </trkpt>
      <trkpt lat="45.61936" lon="4.65535">
        <ele>408.22</ele>
        <time>2011-10-29T10:44:50Z</time>
      </trkpt>
      <trkpt lat="45.61938" lon="4.65531">
        <ele>408.22</ele>
        <time>2011-10-29T10:45:00Z</time>
      </trkpt>
      <trkpt lat="45.61937" lon="4.6553">
        <ele>407.74</ele>
        <time>2011-10-29T10:45:06Z</time>
      </trkpt>
      <trkpt lat="45.61935" lon="4.65529">
        <ele>407.26</ele>
        <time>2011-10-29T10:45:15Z</time>
      </trkpt>
      <trkpt lat="45.61934" lon="4.65529">
        <ele>408.7</ele>
        <time>2011-10-29T10:45:46Z</time>
      </trkpt>
      <trkpt lat="45.61933" lon="4.65528">
        <ele>409.18</ele>
        <time>2011-10-29T10:45:47Z</time>
      </trkpt>
      <trkpt lat="45.61926" lon="4.65519">
        <ele>408.7</ele>
        <time>2011-10-29T10:45:54Z</time>
      </trkpt>
      <trkpt lat="45.61925" lon="4.65519">
        <ele>408.22</ele>
        <time>2011-10-29T10:45:57Z</time>
      </trkpt>
      <trkpt lat="45.6192" lon="4.65514">
        <ele>407.74</ele>
        <time>2011-10-29T10:46:03Z</time>
      </trkpt>
      <trkpt lat="45.61914" lon="4.65506">
        <ele>406.77</ele>
        <time>2011-10-29T10:46:12Z</time>
      </trkpt>
      <trkpt lat="45.61909" lon="4.65498">
        <ele>405.33</ele>
        <time>2011-10-29T10:46:20Z</time>
      </trkpt>
      <trkpt lat="45.61912" lon="4.65481">
        <ele>405.33</ele>
        <time>2011-10-29T10:46:29Z</time>
      </trkpt>
      <trkpt lat="45.61915" lon="4.65473">
        <ele>404.85</ele>
        <time>2011-10-29T10:46:36Z</time>
      </trkpt>
      <trkpt lat="45.61919" lon="4.65467">
        <ele>404.85</ele>
        <time>2011-10-29T10:46:41Z</time>
      </trkpt>
      <trkpt lat="45.61924" lon="4.65456">
        <ele>405.33</ele>
        <time>2011-10-29T10:46:50Z</time>
      </trkpt>
      <trkpt lat="45.61928" lon="4.65448">
        <ele>404.85</ele>
        <time>2011-10-29T10:46:57Z</time>
      </trkpt>
      <trkpt lat="45.61933" lon="4.65443">
        <ele>404.85</ele>
        <time>2011-10-29T10:47:02Z</time>
      </trkpt>
      <trkpt lat="45.61936" lon="4.6543">
        <ele>404.37</ele>
        <time>2011-10-29T10:47:10Z</time>
      </trkpt>
      <trkpt lat="45.61937" lon="4.6543">
        <ele>403.89</ele>
        <time>2011-10-29T10:47:12Z</time>
      </trkpt>
      <trkpt lat="45.61938" lon="4.65423">
        <ele>403.89</ele>
        <time>2011-10-29T10:47:17Z</time>
      </trkpt>
      <trkpt lat="45.61942" lon="4.65417">
        <ele>403.41</ele>
        <time>2011-10-29T10:47:23Z</time>
      </trkpt>
      <trkpt lat="45.61945" lon="4.65408">
        <ele>403.89</ele>
        <time>2011-10-29T10:47:35Z</time>
      </trkpt>
      <trkpt lat="45.61946" lon="4.65393">
        <ele>402.93</ele>
        <time>2011-10-29T10:47:48Z</time>
      </trkpt>
      <trkpt lat="45.61946" lon="4.65392">
        <ele>402.93</ele>
        <time>2011-10-29T10:47:49Z</time>
      </trkpt>
      <trkpt lat="45.61948" lon="4.65385">
        <ele>402.45</ele>
        <time>2011-10-29T10:47:57Z</time>
      </trkpt>
      <trkpt lat="45.61951" lon="4.65381">
        <ele>402.45</ele>
        <time>2011-10-29T10:48:02Z</time>
      </trkpt>
      <trkpt lat="45.61955" lon="4.65374">
        <ele>402.45</ele>
        <time>2011-10-29T10:48:10Z</time>
      </trkpt>
      <trkpt lat="45.61958" lon="4.65368">
        <ele>401.97</ele>
        <time>2011-10-29T10:48:15Z</time>
      </trkpt>
      <trkpt lat="45.61964" lon="4.65368">
        <ele>401.97</ele>
        <time>2011-10-29T10:48:22Z</time>
      </trkpt>
      <trkpt lat="45.61971" lon="4.65371">
        <ele>401.97</ele>
        <time>2011-10-29T10:48:27Z</time>
      </trkpt>
      <trkpt lat="45.61977" lon="4.65374">
        <ele>401.49</ele>
        <time>2011-10-29T10:48:35Z</time>
      </trkpt>
      <trkpt lat="45.61987" lon="4.65382">
        <ele>401.97</ele>
        <time>2011-10-29T10:48:42Z</time>
      </trkpt>
      <trkpt lat="45.6199" lon="4.65376">
        <ele>401.49</ele>
        <time>2011-10-29T10:48:46Z</time>
      </trkpt>
      <trkpt lat="45.61995" lon="4.65368">
        <ele>401.49</ele>
        <time>2011-10-29T10:48:51Z</time>
      </trkpt>
      <trkpt lat="45.61994" lon="4.65367">
        <ele>401.49</ele>
        <time>2011-10-29T10:48:55Z</time>
      </trkpt>
      <trkpt lat="45.61998" lon="4.65351">
        <ele>401.97</ele>
        <time>2011-10-29T10:49:04Z</time>
      </trkpt>
      <trkpt lat="45.61998" lon="4.65351">
        <ele>401.97</ele>
        <time>2011-10-29T10:49:05Z</time>
      </trkpt>
      <trkpt lat="45.62" lon="4.65341">
        <ele>401.49</ele>
        <time>2011-10-29T10:49:09Z</time>
      </trkpt>
      <trkpt lat="45.62003" lon="4.65334">
        <ele>401.49</ele>
        <time>2011-10-29T10:49:14Z</time>
      </trkpt>
      <trkpt lat="45.62008" lon="4.65319">
        <ele>401.49</ele>
        <time>2011-10-29T10:49:21Z</time>
      </trkpt>
      <trkpt lat="45.62013" lon="4.65295">
        <ele>402.45</ele>
        <time>2011-10-29T10:49:36Z</time>
      </trkpt>
      <trkpt lat="45.62014" lon="4.65294">
        <ele>401.49</ele>
        <time>2011-10-29T10:49:37Z</time>
      </trkpt>
      <trkpt lat="45.62023" lon="4.65273">
        <ele>401.97</ele>
        <time>2011-10-29T10:49:49Z</time>
      </trkpt>
      <trkpt lat="45.62024" lon="4.65255">
        <ele>401.49</ele>
        <time>2011-10-29T10:49:59Z</time>
      </trkpt>
      <trkpt lat="45.62026" lon="4.65238">
        <ele>401.97</ele>
        <time>2011-10-29T10:50:09Z</time>
      </trkpt>
      <trkpt lat="45.6203" lon="4.65226">
        <ele>402.45</ele>
        <time>2011-10-29T10:50:15Z</time>
      </trkpt>
      <trkpt lat="45.62032" lon="4.65221">
        <ele>402.93</ele>
        <time>2011-10-29T10:50:20Z</time>
      </trkpt>
      <trkpt lat="45.62037" lon="4.65221">
        <ele>402.93</ele>
        <time>2011-10-29T10:50:25Z</time>
      </trkpt>
      <trkpt lat="45.62045" lon="4.6522">
        <ele>403.41</ele>
        <time>2011-10-29T10:50:34Z</time>
      </trkpt>
      <trkpt lat="45.62065" lon="4.65226">
        <ele>405.33</ele>
        <time>2011-10-29T10:50:46Z</time>
      </trkpt>
      <trkpt lat="45.62077" lon="4.65229">
        <ele>405.81</ele>
        <time>2011-10-29T10:50:55Z</time>
      </trkpt>
      <trkpt lat="45.62082" lon="4.65231">
        <ele>406.77</ele>
        <time>2011-10-29T10:51:05Z</time>
      </trkpt>
      <trkpt lat="45.6209" lon="4.65232">
        <ele>406.77</ele>
        <time>2011-10-29T10:51:09Z</time>
      </trkpt>
      <trkpt lat="45.6209" lon="4.65232">
        <ele>407.26</ele>
        <time>2011-10-29T10:51:12Z</time>
      </trkpt>
      <trkpt lat="45.62098" lon="4.65232">
        <ele>407.26</ele>
        <time>2011-10-29T10:51:16Z</time>
      </trkpt>
      <trkpt lat="45.62107" lon="4.65231">
        <ele>407.74</ele>
        <time>2011-10-29T10:51:25Z</time>
      </trkpt>
      <trkpt lat="45.62119" lon="4.6523">
        <ele>407.74</ele>
        <time>2011-10-29T10:51:30Z</time>
      </trkpt>
      <trkpt lat="45.62124" lon="4.6523">
        <ele>407.74</ele>
        <time>2011-10-29T10:51:38Z</time>
      </trkpt>
      <trkpt lat="45.62131" lon="4.65227">
        <ele>407.26</ele>
        <time>2011-10-29T10:51:42Z</time>
      </trkpt>
      <trkpt lat="45.62148" lon="4.65227">
        <ele>407.26</ele>
        <time>2011-10-29T10:51:53Z</time>
      </trkpt>
      <trkpt lat="45.62148" lon="4.65226">
        <ele>406.77</ele>
        <time>2011-10-29T10:51:56Z</time>
      </trkpt>
      <trkpt lat="45.62158" lon="4.65225">
        <ele>406.77</ele>
        <time>2011-10-29T10:52:01Z</time>
      </trkpt>
      <trkpt lat="45.62171" lon="4.65225">
        <ele>406.29</ele>
        <time>2011-10-29T10:52:10Z</time>
      </trkpt>
      <trkpt lat="45.62171" lon="4.65225">
        <ele>406.77</ele>
        <time>2011-10-29T10:52:12Z</time>
      </trkpt>
      <trkpt lat="45.62181" lon="4.65222">
        <ele>406.29</ele>
        <time>2011-10-29T10:52:17Z</time>
      </trkpt>
      <trkpt lat="45.62189" lon="4.6522">
        <ele>405.81</ele>
        <time>2011-10-29T10:52:29Z</time>
      </trkpt>
      <trkpt lat="45.62193" lon="4.65219">
        <ele>405.81</ele>
        <time>2011-10-29T10:52:31Z</time>
      </trkpt>
      <trkpt lat="45.62212" lon="4.65206">
        <ele>405.81</ele>
        <time>2011-10-29T10:52:42Z</time>
      </trkpt>
      <trkpt lat="45.62212" lon="4.65205">
        <ele>405.81</ele>
        <time>2011-10-29T10:52:45Z</time>
      </trkpt>
      <trkpt lat="45.62219" lon="4.65193">
        <ele>406.29</ele>
        <time>2011-10-29T10:52:53Z</time>
      </trkpt>
      <trkpt lat="45.62222" lon="4.65175">
        <ele>407.26</ele>
        <time>2011-10-29T10:53:03Z</time>
      </trkpt>
      <trkpt lat="45.62224" lon="4.65161">
        <ele>407.74</ele>
        <time>2011-10-29T10:53:08Z</time>
      </trkpt>
      <trkpt lat="45.62224" lon="4.65155">
        <ele>408.22</ele>
        <time>2011-10-29T10:53:15Z</time>
      </trkpt>
      <trkpt lat="45.62227" lon="4.65138">
        <ele>408.7</ele>
        <time>2011-10-29T10:53:24Z</time>
      </trkpt>
      <trkpt lat="45.62229" lon="4.65126">
        <ele>409.18</ele>
        <time>2011-10-29T10:53:30Z</time>
      </trkpt>
      <trkpt lat="45.62229" lon="4.65122">
        <ele>409.66</ele>
        <time>2011-10-29T10:53:33Z</time>
      </trkpt>
      <trkpt lat="45.62228" lon="4.65114">
        <ele>410.14</ele>
        <time>2011-10-29T10:53:37Z</time>
      </trkpt>
      <trkpt lat="45.6223" lon="4.65089">
        <ele>411.1</ele>
        <time>2011-10-29T10:53:49Z</time>
      </trkpt>
      <trkpt lat="45.6223" lon="4.65088">
        <ele>411.1</ele>
        <time>2011-10-29T10:53:52Z</time>
      </trkpt>
      <trkpt lat="45.6223" lon="4.65073">
        <ele>412.06</ele>
        <time>2011-10-29T10:54:00Z</time>
      </trkpt>
      <trkpt lat="45.6223" lon="4.65063">
        <ele>413.02</ele>
        <time>2011-10-29T10:54:08Z</time>
      </trkpt>
      <trkpt lat="45.62235" lon="4.65049">
        <ele>413.5</ele>
        <time>2011-10-29T10:54:16Z</time>
      </trkpt>
      <trkpt lat="45.6224" lon="4.65037">
        <ele>413.98</ele>
        <time>2011-10-29T10:54:21Z</time>
      </trkpt>
      <trkpt lat="45.6224" lon="4.65031">
        <ele>414.47</ele>
        <time>2011-10-29T10:54:26Z</time>
      </trkpt>
      <trkpt lat="45.6224" lon="4.65015">
        <ele>415.43</ele>
        <time>2011-10-29T10:54:35Z</time>
      </trkpt>
      <trkpt lat="45.62241" lon="4.65004">
        <ele>415.91</ele>
        <time>2011-10-29T10:54:42Z</time>
      </trkpt>
      <trkpt lat="45.62244" lon="4.64988">
        <ele>416.87</ele>
        <time>2011-10-29T10:54:50Z</time>
      </trkpt>
      <trkpt lat="45.62246" lon="4.64979">
        <ele>417.35</ele>
        <time>2011-10-29T10:54:57Z</time>
      </trkpt>
      <trkpt lat="45.62249" lon="4.64966">
        <ele>418.31</ele>
        <time>2011-10-29T10:55:04Z</time>
      </trkpt>
      <trkpt lat="45.6225" lon="4.64953">
        <ele>419.27</ele>
        <time>2011-10-29T10:55:12Z</time>
      </trkpt>
      <trkpt lat="45.62253" lon="4.64942">
        <ele>419.75</ele>
        <time>2011-10-29T10:55:19Z</time>
      </trkpt>
      <trkpt lat="45.62254" lon="4.64929">
        <ele>420.23</ele>
        <time>2011-10-29T10:55:26Z</time>
      </trkpt>
      <trkpt lat="45.62255" lon="4.64922">
        <ele>421.19</ele>
        <time>2011-10-29T10:55:32Z</time>
      </trkpt>
      <trkpt lat="45.62257" lon="4.64911">
        <ele>421.68</ele>
        <time>2011-10-29T10:55:39Z</time>
      </trkpt>
      <trkpt lat="45.62257" lon="4.64906">
        <ele>422.64</ele>
        <time>2011-10-29T10:55:44Z</time>
      </trkpt>
      <trkpt lat="45.6226" lon="4.64886">
        <ele>424.56</ele>
        <time>2011-10-29T10:55:53Z</time>
      </trkpt>
      <trkpt lat="45.62261" lon="4.64885">
        <ele>424.56</ele>
        <time>2011-10-29T10:55:54Z</time>
      </trkpt>
      <trkpt lat="45.62262" lon="4.6488">
        <ele>424.08</ele>
        <time>2011-10-29T10:56:04Z</time>
      </trkpt>
      <trkpt lat="45.62265" lon="4.64866">
        <ele>425.04</ele>
        <time>2011-10-29T10:56:13Z</time>
      </trkpt>
      <trkpt lat="45.62266" lon="4.64864">
        <ele>425.04</ele>
        <time>2011-10-29T10:56:14Z</time>
      </trkpt>
      <trkpt lat="45.62267" lon="4.64855">
        <ele>426</ele>
        <time>2011-10-29T10:56:21Z</time>
      </trkpt>
      <trkpt lat="45.62269" lon="4.64845">
        <ele>427.44</ele>
        <time>2011-10-29T10:56:27Z</time>
      </trkpt>
      <trkpt lat="45.62273" lon="4.64821">
        <ele>428.89</ele>
        <time>2011-10-29T10:56:39Z</time>
      </trkpt>
      <trkpt lat="45.62274" lon="4.64816">
        <ele>428.89</ele>
        <time>2011-10-29T10:56:43Z</time>
      </trkpt>
      <trkpt lat="45.62276" lon="4.64806">
        <ele>429.85</ele>
        <time>2011-10-29T10:56:49Z</time>
      </trkpt>
      <trkpt lat="45.62279" lon="4.64795">
        <ele>430.33</ele>
        <time>2011-10-29T10:56:55Z</time>
      </trkpt>
      <trkpt lat="45.6228" lon="4.64779">
        <ele>431.77</ele>
        <time>2011-10-29T10:57:06Z</time>
      </trkpt>
      <trkpt lat="45.6228" lon="4.64772">
        <ele>431.29</ele>
        <time>2011-10-29T10:57:15Z</time>
      </trkpt>
      <trkpt lat="45.62283" lon="4.64763">
        <ele>432.73</ele>
        <time>2011-10-29T10:57:21Z</time>
      </trkpt>
      <trkpt lat="45.62285" lon="4.64746">
        <ele>434.17</ele>
        <time>2011-10-29T10:57:31Z</time>
      </trkpt>
      <trkpt lat="45.6229" lon="4.64728">
        <ele>435.13</ele>
        <time>2011-10-29T10:57:42Z</time>
      </trkpt>
      <trkpt lat="45.62291" lon="4.64721">
        <ele>435.61</ele>
        <time>2011-10-29T10:57:47Z</time>
      </trkpt>
      <trkpt lat="45.62296" lon="4.64701">
        <ele>437.06</ele>
        <time>2011-10-29T10:57:59Z</time>
      </trkpt>
      <trkpt lat="45.62297" lon="4.64689">
        <ele>438.02</ele>
        <time>2011-10-29T10:58:05Z</time>
      </trkpt>
      <trkpt lat="45.62299" lon="4.64676">
        <ele>438.5</ele>
        <time>2011-10-29T10:58:13Z</time>
      </trkpt>
      <trkpt lat="45.62301" lon="4.64667">
        <ele>438.98</ele>
        <time>2011-10-29T10:58:19Z</time>
      </trkpt>
      <trkpt lat="45.62304" lon="4.6466">
        <ele>439.46</ele>
        <time>2011-10-29T10:58:23Z</time>
      </trkpt>
      <trkpt lat="45.62304" lon="4.64654">
        <ele>439.46</ele>
        <time>2011-10-29T10:58:28Z</time>
      </trkpt>
      <trkpt lat="45.62305" lon="4.64647">
        <ele>439.94</ele>
        <time>2011-10-29T10:58:32Z</time>
      </trkpt>
      <trkpt lat="45.62304" lon="4.64641">
        <ele>440.42</ele>
        <time>2011-10-29T10:58:37Z</time>
      </trkpt>
      <trkpt lat="45.62302" lon="4.64634">
        <ele>441.38</ele>
        <time>2011-10-29T10:58:44Z</time>
      </trkpt>
      <trkpt lat="45.62302" lon="4.64625">
        <ele>441.38</ele>
        <time>2011-10-29T10:58:51Z</time>
      </trkpt>
      <trkpt lat="45.623" lon="4.64611">
        <ele>441.86</ele>
        <time>2011-10-29T10:59:01Z</time>
      </trkpt>
      <trkpt lat="45.623" lon="4.6461">
        <ele>442.34</ele>
        <time>2011-10-29T10:59:02Z</time>
      </trkpt>
      <trkpt lat="45.62299" lon="4.64603">
        <ele>443.31</ele>
        <time>2011-10-29T10:59:08Z</time>
      </trkpt>
      <trkpt lat="45.62302" lon="4.64592">
        <ele>443.79</ele>
        <time>2011-10-29T10:59:15Z</time>
      </trkpt>
      <trkpt lat="45.623" lon="4.64577">
        <ele>444.75</ele>
        <time>2011-10-29T10:59:23Z</time>
      </trkpt>
      <trkpt lat="45.623" lon="4.64568">
        <ele>444.75</ele>
        <time>2011-10-29T10:59:28Z</time>
      </trkpt>
      <trkpt lat="45.62301" lon="4.64557">
        <ele>445.71</ele>
        <time>2011-10-29T10:59:35Z</time>
      </trkpt>
      <trkpt lat="45.62303" lon="4.64549">
        <ele>446.19</ele>
        <time>2011-10-29T10:59:40Z</time>
      </trkpt>
      <trkpt lat="45.62302" lon="4.64537">
        <ele>447.63</ele>
        <time>2011-10-29T10:59:48Z</time>
      </trkpt>
      <trkpt lat="45.62302" lon="4.64527">
        <ele>448.59</ele>
        <time>2011-10-29T10:59:55Z</time>
      </trkpt>
      <trkpt lat="45.62306" lon="4.64518">
        <ele>448.11</ele>
        <time>2011-10-29T11:00:00Z</time>
      </trkpt>
      <trkpt lat="45.62307" lon="4.64503">
        <ele>450.03</ele>
        <time>2011-10-29T11:00:09Z</time>
      </trkpt>
      <trkpt lat="45.62307" lon="4.645">
        <ele>449.55</ele>
        <time>2011-10-29T11:00:10Z</time>
      </trkpt>
      <trkpt lat="45.62309" lon="4.64492">
        <ele>451</ele>
        <time>2011-10-29T11:00:16Z</time>
      </trkpt>
      <trkpt lat="45.62309" lon="4.64488">
        <ele>450.52</ele>
        <time>2011-10-29T11:00:18Z</time>
      </trkpt>
      <trkpt lat="45.62312" lon="4.64466">
        <ele>451.96</ele>
        <time>2011-10-29T11:00:31Z</time>
      </trkpt>
      <trkpt lat="45.6231" lon="4.64452">
        <ele>452.44</ele>
        <time>2011-10-29T11:00:38Z</time>
      </trkpt>
      <trkpt lat="45.62312" lon="4.64442">
        <ele>453.4</ele>
        <time>2011-10-29T11:00:44Z</time>
      </trkpt>
      <trkpt lat="45.62313" lon="4.64433">
        <ele>454.36</ele>
        <time>2011-10-29T11:00:50Z</time>
      </trkpt>
      <trkpt lat="45.62315" lon="4.64423">
        <ele>454.84</ele>
        <time>2011-10-29T11:00:56Z</time>
      </trkpt>
      <trkpt lat="45.62314" lon="4.64413">
        <ele>455.32</ele>
        <time>2011-10-29T11:01:02Z</time>
      </trkpt>
      <trkpt lat="45.62315" lon="4.64402">
        <ele>456.76</ele>
        <time>2011-10-29T11:01:09Z</time>
      </trkpt>
      <trkpt lat="45.62315" lon="4.64392">
        <ele>457.72</ele>
        <time>2011-10-29T11:01:16Z</time>
      </trkpt>
      <trkpt lat="45.62315" lon="4.64374">
        <ele>459.17</ele>
        <time>2011-10-29T11:01:27Z</time>
      </trkpt>
      <trkpt lat="45.62312" lon="4.64358">
        <ele>461.09</ele>
        <time>2011-10-29T11:01:37Z</time>
      </trkpt>
      <trkpt lat="45.62311" lon="4.64352">
        <ele>461.57</ele>
        <time>2011-10-29T11:01:41Z</time>
      </trkpt>
      <trkpt lat="45.6231" lon="4.64345">
        <ele>462.05</ele>
        <time>2011-10-29T11:01:46Z</time>
      </trkpt>
      <trkpt lat="45.62307" lon="4.6433">
        <ele>463.97</ele>
        <time>2011-10-29T11:01:57Z</time>
      </trkpt>
      <trkpt lat="45.62305" lon="4.6432">
        <ele>464.45</ele>
        <time>2011-10-29T11:02:04Z</time>
      </trkpt>
      <trkpt lat="45.62301" lon="4.64302">
        <ele>466.38</ele>
        <time>2011-10-29T11:02:16Z</time>
      </trkpt>
      <trkpt lat="45.62297" lon="4.6429">
        <ele>467.34</ele>
        <time>2011-10-29T11:02:23Z</time>
      </trkpt>
      <trkpt lat="45.62295" lon="4.64278">
        <ele>468.3</ele>
        <time>2011-10-29T11:02:29Z</time>
      </trkpt>
      <trkpt lat="45.62294" lon="4.64271">
        <ele>469.26</ele>
        <time>2011-10-29T11:02:33Z</time>
      </trkpt>
      <trkpt lat="45.62293" lon="4.64261">
        <ele>470.22</ele>
        <time>2011-10-29T11:02:43Z</time>
      </trkpt>
      <trkpt lat="45.62293" lon="4.64259">
        <ele>470.7</ele>
        <time>2011-10-29T11:02:45Z</time>
      </trkpt>
      <trkpt lat="45.6229" lon="4.6425">
        <ele>471.66</ele>
        <time>2011-10-29T11:02:51Z</time>
      </trkpt>
      <trkpt lat="45.62288" lon="4.64243">
        <ele>471.66</ele>
        <time>2011-10-29T11:02:56Z</time>
      </trkpt>
      <trkpt lat="45.62284" lon="4.64232">
        <ele>473.11</ele>
        <time>2011-10-29T11:03:02Z</time>
      </trkpt>
      <trkpt lat="45.62281" lon="4.64218">
        <ele>473.59</ele>
        <time>2011-10-29T11:03:11Z</time>
      </trkpt>
      <trkpt lat="45.62276" lon="4.64207">
        <ele>474.55</ele>
        <time>2011-10-29T11:03:20Z</time>
      </trkpt>
      <trkpt lat="45.62272" lon="4.64203">
        <ele>474.07</ele>
        <time>2011-10-29T11:03:23Z</time>
      </trkpt>
      <trkpt lat="45.62256" lon="4.64186">
        <ele>473.59</ele>
        <time>2011-10-29T11:03:34Z</time>
      </trkpt>
      <trkpt lat="45.6225" lon="4.64168">
        <ele>474.07</ele>
        <time>2011-10-29T11:03:45Z</time>
      </trkpt>
      <trkpt lat="45.62249" lon="4.64162">
        <ele>473.59</ele>
        <time>2011-10-29T11:03:50Z</time>
      </trkpt>
      <trkpt lat="45.62249" lon="4.64157">
        <ele>474.55</ele>
        <time>2011-10-29T11:03:53Z</time>
      </trkpt>
      <trkpt lat="45.62239" lon="4.6414">
        <ele>475.03</ele>
        <time>2011-10-29T11:04:05Z</time>
      </trkpt>
      <trkpt lat="45.62237" lon="4.64126">
        <ele>476.47</ele>
        <time>2011-10-29T11:04:15Z</time>
      </trkpt>
      <trkpt lat="45.62231" lon="4.6411">
        <ele>476.95</ele>
        <time>2011-10-29T11:04:28Z</time>
      </trkpt>
      <trkpt lat="45.62228" lon="4.64099">
        <ele>477.91</ele>
        <time>2011-10-29T11:04:34Z</time>
      </trkpt>
      <trkpt lat="45.62226" lon="4.64091">
        <ele>478.39</ele>
        <time>2011-10-29T11:04:39Z</time>
      </trkpt>
      <trkpt lat="45.62223" lon="4.64075">
        <ele>478.39</ele>
        <time>2011-10-29T11:04:51Z</time>
      </trkpt>
      <trkpt lat="45.62222" lon="4.64073">
        <ele>478.39</ele>
        <time>2011-10-29T11:04:53Z</time>
      </trkpt>
      <trkpt lat="45.6222" lon="4.64067">
        <ele>478.39</ele>
        <time>2011-10-29T11:04:57Z</time>
      </trkpt>
      <trkpt lat="45.62217" lon="4.6406">
        <ele>478.39</ele>
        <time>2011-10-29T11:05:10Z</time>
      </trkpt>
      <trkpt lat="45.62217" lon="4.6406">
        <ele>481.76</ele>
        <time>2011-10-29T11:05:13Z</time>
      </trkpt>
      <trkpt lat="45.62217" lon="4.6406">
        <ele>476.95</ele>
        <time>2011-10-29T11:05:16Z</time>
      </trkpt>
    </trkseg>
  </trk>
</gpx>